createdAt,value
2018-03-16T00:01:58.569Z,7.60
2018-03-16T00:04:01.946Z,7.60
2018-03-16T00:06:06.070Z,7.60
2018-03-16T00:08:09.416Z,7.60
2018-03-16T00:10:12.755Z,7.60
2018-03-16T00:12:16.147Z,7.60
2018-03-16T00:14:19.458Z,7.60
2018-03-16T00:16:23.633Z,7.60
2018-03-16T00:18:26.970Z,7.60
2018-03-16T00:20:31.051Z,7.50
2018-03-16T00:22:39.400Z,7.50
2018-03-16T00:24:42.779Z,7.50
2018-03-16T00:26:46.861Z,7.60
2018-03-16T00:28:50.172Z,7.60
2018-03-16T00:30:54.028Z,7.50
2018-03-16T00:32:57.363Z,7.50
2018-03-16T00:35:00.707Z,7.50
2018-03-16T00:37:04.043Z,7.60
2018-03-16T00:39:07.384Z,7.60
2018-03-16T00:41:10.740Z,7.60
2018-03-16T00:43:14.893Z,7.50
2018-03-16T00:45:18.213Z,7.50
2018-03-16T00:47:21.522Z,7.50
2018-03-16T00:49:25.610Z,7.50
2018-03-16T00:51:28.969Z,7.50
2018-03-16T00:53:32.296Z,7.50
2018-03-16T00:55:35.631Z,7.50
2018-03-16T00:57:38.940Z,7.50
2018-03-16T00:59:42.268Z,7.50
2018-03-16T01:01:45.629Z,7.60
2018-03-16T01:03:48.956Z,7.60
2018-03-16T01:05:53.085Z,7.60
2018-03-16T01:07:57.199Z,7.60
2018-03-16T01:10:01.335Z,7.60
2018-03-16T01:12:04.734Z,7.60
2018-03-16T01:14:08.068Z,7.50
2018-03-16T01:16:11.444Z,7.50
2018-03-16T01:18:15.594Z,7.60
2018-03-16T01:20:19.017Z,7.50
2018-03-16T01:22:22.329Z,7.50
2018-03-16T01:24:25.662Z,7.50
2018-03-16T01:26:29.174Z,7.60
2018-03-16T01:28:32.645Z,7.50
2018-03-16T01:30:36.018Z,7.50
2018-03-16T01:32:39.378Z,7.50
2018-03-16T01:34:42.702Z,7.50
2018-03-16T01:36:46.052Z,7.50
2018-03-16T01:38:49.373Z,7.40
2018-03-16T01:40:52.693Z,7.40
2018-03-16T01:42:56.783Z,7.40
2018-03-16T01:45:00.101Z,7.40
2018-03-16T01:47:03.488Z,7.40
2018-03-16T01:49:07.464Z,7.40
2018-03-16T01:51:10.860Z,7.40
2018-03-16T01:53:17.783Z,7.40
2018-03-16T01:55:21.100Z,7.40
2018-03-16T01:57:24.452Z,7.40
2018-03-16T01:59:27.779Z,7.40
2018-03-16T02:01:31.181Z,7.40
2018-03-16T02:03:35.317Z,7.30
2018-03-16T02:05:38.636Z,7.20
2018-03-16T02:07:41.968Z,7.20
2018-03-16T02:09:45.328Z,7.20
2018-03-16T02:11:48.714Z,7.20
2018-03-16T02:13:52.047Z,7.20
2018-03-16T02:15:55.370Z,7.20
2018-03-16T02:17:58.678Z,7.20
2018-03-16T02:20:02.759Z,7.20
2018-03-16T02:22:06.868Z,7.10
2018-03-16T02:24:11.966Z,7.20
2018-03-16T02:26:15.281Z,7.20
2018-03-16T02:28:18.581Z,7.10
2018-03-16T02:30:21.888Z,7.10
2018-03-16T02:32:26.001Z,7.00
2018-03-16T02:34:29.352Z,7.00
2018-03-16T02:36:32.685Z,7.10
2018-03-16T02:38:35.989Z,7.10
2018-03-16T02:40:40.085Z,7.00
2018-03-16T02:42:44.161Z,7.00
2018-03-16T02:44:47.481Z,7.00
2018-03-16T02:46:50.807Z,7.00
2018-03-16T02:48:54.385Z,7.10
2018-03-16T02:50:57.720Z,7.10
2018-03-16T02:53:01.036Z,7.10
2018-03-16T02:55:04.351Z,7.00
2018-03-16T02:57:08.427Z,7.00
2018-03-16T02:59:11.751Z,6.90
2018-03-16T03:01:15.854Z,7.00
2018-03-16T03:03:19.936Z,7.10
2018-03-16T03:05:23.262Z,7.00
2018-03-16T03:07:27.338Z,7.00
2018-03-16T03:09:30.666Z,7.00
2018-03-16T03:11:34.737Z,7.10
2018-03-16T03:13:38.834Z,7.20
2018-03-16T03:15:42.171Z,7.20
2018-03-16T03:17:45.557Z,7.10
2018-03-16T03:19:48.888Z,7.10
2018-03-16T03:21:52.235Z,7.10
2018-03-16T03:23:56.305Z,7.20
2018-03-16T03:25:59.630Z,7.20
2018-03-16T03:28:02.947Z,7.20
2018-03-16T03:30:06.292Z,7.20
2018-03-16T03:32:09.661Z,7.10
2018-03-16T03:34:12.968Z,7.10
2018-03-16T03:36:16.291Z,7.00
2018-03-16T03:38:20.366Z,7.00
2018-03-16T03:40:23.691Z,7.00
2018-03-16T03:42:27.034Z,7.10
2018-03-16T03:44:30.345Z,7.10
2018-03-16T03:46:33.649Z,7.10
2018-03-16T03:48:36.967Z,7.10
2018-03-16T03:50:40.281Z,7.00
2018-03-16T03:52:43.598Z,7.00
2018-03-16T03:54:46.902Z,7.00
2018-03-16T03:56:51.018Z,6.90
2018-03-16T03:58:55.264Z,6.90
2018-03-16T04:00:58.604Z,6.90
2018-03-16T04:03:02.013Z,7.00
2018-03-16T04:05:05.337Z,7.00
2018-03-16T04:07:09.411Z,7.10
2018-03-16T04:09:12.818Z,7.10
2018-03-16T04:11:16.127Z,7.00
2018-03-16T04:13:20.233Z,7.00
2018-03-16T04:15:23.552Z,7.00
2018-03-16T04:17:26.978Z,7.10
2018-03-16T04:19:30.339Z,7.10
2018-03-16T04:21:33.666Z,7.00
2018-03-16T04:23:36.970Z,7.00
2018-03-16T04:25:41.056Z,7.00
2018-03-16T04:27:44.390Z,6.90
2018-03-16T04:29:47.751Z,6.90
2018-03-16T04:31:51.123Z,7.00
2018-03-16T04:33:54.450Z,6.90
2018-03-16T04:35:58.558Z,6.90
2018-03-16T04:38:01.929Z,6.80
2018-03-16T04:40:05.240Z,6.90
2018-03-16T04:42:09.329Z,6.90
2018-03-16T04:44:12.752Z,6.90
2018-03-16T04:46:16.864Z,6.90
2018-03-16T04:48:20.230Z,6.80
2018-03-16T04:50:24.343Z,6.90
2018-03-16T04:52:27.649Z,6.90
2018-03-16T04:54:31.714Z,6.90
2018-03-16T04:56:35.058Z,6.90
2018-03-16T04:58:38.378Z,6.90
2018-03-16T05:00:41.723Z,6.80
2018-03-16T05:02:45.098Z,6.70
2018-03-16T05:04:48.458Z,6.80
2018-03-16T05:06:51.816Z,6.90
2018-03-16T05:08:55.892Z,6.90
2018-03-16T05:10:59.202Z,6.90
2018-03-16T05:13:03.281Z,6.90
2018-03-16T05:15:06.639Z,6.90
2018-03-16T05:17:10.882Z,7.00
2018-03-16T05:19:14.998Z,7.00
2018-03-16T05:21:18.325Z,7.00
2018-03-16T05:23:22.422Z,7.00
2018-03-16T05:25:26.518Z,7.00
2018-03-16T05:27:29.844Z,7.00
2018-03-16T05:29:33.467Z,7.00
2018-03-16T05:31:37.532Z,7.10
2018-03-16T05:33:40.884Z,7.00
2018-03-16T05:35:44.219Z,7.00
2018-03-16T05:37:47.566Z,7.00
2018-03-16T05:39:50.925Z,6.90
2018-03-16T05:41:54.350Z,6.90
2018-03-16T05:43:57.753Z,6.90
2018-03-16T05:46:01.050Z,6.90
2018-03-16T05:48:04.357Z,6.90
2018-03-16T05:50:08.437Z,7.00
2018-03-16T05:52:12.538Z,7.00
2018-03-16T05:54:15.852Z,7.00
2018-03-16T05:56:19.175Z,7.10
2018-03-16T05:58:22.486Z,7.00
2018-03-16T06:00:25.815Z,6.90
2018-03-16T06:02:29.124Z,6.90
2018-03-16T06:04:32.442Z,6.90
2018-03-16T06:06:35.752Z,6.90
2018-03-16T06:08:39.081Z,7.00
2018-03-16T06:10:42.421Z,7.00
2018-03-16T06:12:45.732Z,7.10
2018-03-16T06:14:49.059Z,7.10
2018-03-16T06:16:52.359Z,7.10
2018-03-16T06:18:56.439Z,7.00
2018-03-16T06:20:59.763Z,7.00
2018-03-16T06:23:03.838Z,7.00
2018-03-16T06:25:07.150Z,7.00
2018-03-16T06:27:10.505Z,7.00
2018-03-16T06:29:13.827Z,7.10
2018-03-16T06:31:17.150Z,7.10
2018-03-16T06:33:20.484Z,7.10
2018-03-16T06:35:23.792Z,7.10
2018-03-16T06:37:27.146Z,7.10
2018-03-16T06:39:31.220Z,7.20
2018-03-16T06:41:34.547Z,7.20
2018-03-16T06:43:37.886Z,7.20
2018-03-16T06:45:41.204Z,7.10
2018-03-16T06:47:44.578Z,7.10
2018-03-16T06:49:48.647Z,7.10
2018-03-16T06:51:51.958Z,7.10
2018-03-16T06:53:56.062Z,7.20
2018-03-16T06:55:59.393Z,7.20
2018-03-16T06:58:03.502Z,7.30
2018-03-16T07:00:06.812Z,7.40
2018-03-16T07:02:10.125Z,7.30
2018-03-16T07:04:13.488Z,7.30
2018-03-16T07:06:16.831Z,7.30
2018-03-16T07:08:20.195Z,7.30
2018-03-16T07:10:24.396Z,7.30
2018-03-16T07:12:27.712Z,7.40
2018-03-16T07:14:31.044Z,7.40
2018-03-16T07:16:35.122Z,7.40
2018-03-16T07:18:38.453Z,7.50
2018-03-16T07:20:41.763Z,7.40
2018-03-16T07:22:45.081Z,7.40
2018-03-16T07:24:48.411Z,7.40
2018-03-16T07:26:52.496Z,7.50
2018-03-16T07:28:55.821Z,7.50
2018-03-16T07:30:59.903Z,7.50
2018-03-16T07:33:03.995Z,7.50
2018-03-16T07:35:07.702Z,7.50
2018-03-16T07:37:11.793Z,7.60
2018-03-16T07:39:15.122Z,7.60
2018-03-16T07:41:19.223Z,7.60
2018-03-16T07:43:22.555Z,7.60
2018-03-16T07:45:31.591Z,7.60
2018-03-16T07:47:34.921Z,7.60
2018-03-16T07:49:38.230Z,7.60
2018-03-16T07:51:42.299Z,7.70
2018-03-16T07:53:45.621Z,7.70
2018-03-16T07:55:48.966Z,7.70
2018-03-16T07:57:52.293Z,7.70
2018-03-16T07:59:55.601Z,7.70
2018-03-16T08:01:59.688Z,7.70
2018-03-16T08:04:02.997Z,7.70
2018-03-16T08:06:06.341Z,7.80
2018-03-16T08:08:09.663Z,7.70
2018-03-16T08:10:12.974Z,7.70
2018-03-16T08:12:17.065Z,7.70
2018-03-16T08:14:21.173Z,7.70
2018-03-16T08:16:24.518Z,7.70
2018-03-16T08:18:27.858Z,7.70
2018-03-16T08:20:31.220Z,7.70
2018-03-16T08:22:34.529Z,7.70
2018-03-16T08:24:37.854Z,7.70
2018-03-16T08:26:41.228Z,7.70
2018-03-16T08:28:45.310Z,7.70
2018-03-16T08:30:48.654Z,7.70
2018-03-16T08:32:51.997Z,7.70
2018-03-16T08:34:55.311Z,7.70
2018-03-16T08:36:58.654Z,7.70
2018-03-16T08:39:01.972Z,7.80
2018-03-16T08:41:06.082Z,7.90
2018-03-16T08:43:09.407Z,7.90
2018-03-16T08:45:13.510Z,7.90
2018-03-16T08:47:17.633Z,7.90
2018-03-16T08:49:20.957Z,7.80
2018-03-16T08:51:24.272Z,7.90
2018-03-16T08:53:27.598Z,7.90
2018-03-16T08:55:32.041Z,7.90
2018-03-16T08:57:35.429Z,7.90
2018-03-16T08:59:38.797Z,7.90
2018-03-16T09:01:42.143Z,7.90
2018-03-16T09:03:45.471Z,7.90
2018-03-16T09:05:49.573Z,8.00
2018-03-16T09:07:52.986Z,8.00
2018-03-16T09:09:56.584Z,8.00
2018-03-16T09:11:59.954Z,8.00
2018-03-16T09:14:03.290Z,8.00
2018-03-16T09:16:06.618Z,8.00
2018-03-16T09:18:10.049Z,8.10
2018-03-16T09:20:13.346Z,8.10
2018-03-16T09:22:16.687Z,8.20
2018-03-16T09:24:20.003Z,8.20
2018-03-16T09:26:24.121Z,8.20
2018-03-16T09:28:28.248Z,8.20
2018-03-16T09:30:31.573Z,8.20
2018-03-16T09:32:34.896Z,8.20
2018-03-16T09:34:39.013Z,8.20
2018-03-16T09:36:42.377Z,8.20
2018-03-16T09:38:45.735Z,8.30
2018-03-16T09:40:49.072Z,8.40
2018-03-16T09:42:52.410Z,8.50
2018-03-16T09:44:55.757Z,8.50
2018-03-16T09:46:59.078Z,8.50
2018-03-16T09:49:02.430Z,8.50
2018-03-16T09:51:06.542Z,8.60
2018-03-16T09:53:09.871Z,8.60
2018-03-16T09:57:53.830Z,8.90
2018-03-16T09:59:57.198Z,8.80
2018-03-16T10:02:00.506Z,8.80
2018-03-16T10:04:03.852Z,8.90
2018-03-16T10:06:07.219Z,9.00
2018-03-16T10:08:10.560Z,9.00
2018-03-16T10:10:13.872Z,9.20
2018-03-16T10:12:17.218Z,9.20
2018-03-16T10:14:20.541Z,9.30
2018-03-16T10:16:24.666Z,9.40
2018-03-16T10:18:28.017Z,9.40
2018-03-16T10:20:31.380Z,9.40
2018-03-16T10:22:35.453Z,9.60
2018-03-16T10:24:38.785Z,9.60
2018-03-16T10:26:42.175Z,9.70
2018-03-16T10:28:45.493Z,9.70
2018-03-16T10:30:48.866Z,9.60
2018-03-16T10:32:52.214Z,9.60
2018-03-16T10:34:55.560Z,9.60
2018-03-16T10:36:58.910Z,9.70
2018-03-16T10:39:02.260Z,9.70
2018-03-16T10:41:06.365Z,9.60
2018-03-16T10:43:10.511Z,9.60
2018-03-16T10:45:13.818Z,9.60
2018-03-16T10:47:17.159Z,9.60
2018-03-16T10:49:20.475Z,9.70
2018-03-16T10:51:24.563Z,9.80
2018-03-16T10:53:27.926Z,9.80
2018-03-16T10:55:31.241Z,9.80
2018-03-16T10:57:34.622Z,9.90
2018-03-16T10:59:37.983Z,10.00
2018-03-16T11:01:46.858Z,10.10
2018-03-16T11:03:51.335Z,10.10
2018-03-16T11:05:54.785Z,10.10
2018-03-16T11:07:58.165Z,10.10
2018-03-16T11:10:02.264Z,10.20
2018-03-16T11:12:05.639Z,10.10
2018-03-16T11:14:09.011Z,10.30
2018-03-16T11:16:12.349Z,10.40
2018-03-16T11:18:16.486Z,10.40
2018-03-16T11:20:19.799Z,10.30
2018-03-16T11:22:23.127Z,10.40
2018-03-16T11:24:26.493Z,10.40
2018-03-16T11:26:29.809Z,10.30
2018-03-16T11:28:33.154Z,10.20
2018-03-16T11:30:36.485Z,10.20
2018-03-16T11:32:39.834Z,10.20
2018-03-16T11:34:43.202Z,10.20
2018-03-16T11:36:47.307Z,10.10
2018-03-16T11:38:50.651Z,10.10
2018-03-16T11:40:54.031Z,10.10
2018-03-16T11:42:57.358Z,10.00
2018-03-16T11:45:00.699Z,9.90
2018-03-16T11:47:04.041Z,10.00
2018-03-16T11:49:07.415Z,9.90
2018-03-16T11:51:10.761Z,9.90
2018-03-16T11:53:14.121Z,9.80
2018-03-16T11:55:17.421Z,9.80
2018-03-16T11:57:21.498Z,9.70
2018-03-16T11:59:24.823Z,9.70
2018-03-16T12:01:28.930Z,9.70
2018-03-16T12:03:33.008Z,9.70
2018-03-16T12:05:36.395Z,9.70
2018-03-16T12:07:39.716Z,9.70
2018-03-16T12:09:43.793Z,9.70
2018-03-16T12:11:47.142Z,9.70
2018-03-16T12:13:50.512Z,9.80
2018-03-16T12:15:54.591Z,9.80
2018-03-16T12:17:57.954Z,9.80
2018-03-16T12:20:01.339Z,9.80
2018-03-16T12:22:04.717Z,9.80
2018-03-16T12:24:08.925Z,9.90
2018-03-16T12:26:12.258Z,9.80
2018-03-16T12:28:15.616Z,9.90
2018-03-16T12:30:18.964Z,10.00
2018-03-16T12:32:22.328Z,10.10
2018-03-16T12:34:25.800Z,10.40
2018-03-16T12:36:29.196Z,10.70
2018-03-16T12:38:32.547Z,10.80
2018-03-16T12:40:36.642Z,11.10
2018-03-16T12:42:39.984Z,11.10
2018-03-16T12:44:43.383Z,11.30
2018-03-16T12:46:46.702Z,11.60
2018-03-16T12:48:50.076Z,11.60
2018-03-16T12:50:53.506Z,11.70
2018-03-16T12:52:56.826Z,11.60
2018-03-16T12:55:00.981Z,11.60
2018-03-16T12:57:04.316Z,11.60
2018-03-16T12:59:08.032Z,11.50
2018-03-16T13:01:11.364Z,11.50
2018-03-16T13:03:14.755Z,11.60
2018-03-16T13:05:18.133Z,11.60
2018-03-16T13:07:21.481Z,11.50
2018-03-16T13:09:25.894Z,11.40
2018-03-16T13:11:30.134Z,11.40
2018-03-16T13:13:33.569Z,11.30
2018-03-16T13:15:37.798Z,11.40
2018-03-16T13:17:41.933Z,11.40
2018-03-16T13:19:45.284Z,11.40
2018-03-16T13:21:48.686Z,11.60
2018-03-16T13:23:52.027Z,11.80
2018-03-16T13:25:55.345Z,12.30
2018-03-16T13:27:58.717Z,12.40
2018-03-16T13:30:02.485Z,12.50
2018-03-16T13:32:05.881Z,12.80
2018-03-16T13:34:09.656Z,13.10
2018-03-16T13:36:13.081Z,13.40
2018-03-16T13:38:16.423Z,13.60
2018-03-16T13:40:19.762Z,13.60
2018-03-16T13:42:23.125Z,13.70
2018-03-16T13:44:27.232Z,14.00
2018-03-16T13:46:31.321Z,14.10
2018-03-16T13:48:34.670Z,14.10
2018-03-16T13:50:37.997Z,14.00
2018-03-16T13:52:41.325Z,14.00
2018-03-16T13:54:45.423Z,13.60
2018-03-16T13:56:49.650Z,13.60
2018-03-16T13:58:53.942Z,13.00
2018-03-16T14:00:57.258Z,13.00
2018-03-16T14:03:01.346Z,12.70
2018-03-16T14:05:04.710Z,12.70
2018-03-16T14:07:08.057Z,12.70
2018-03-16T14:09:11.382Z,12.70
2018-03-16T14:11:14.715Z,12.70
2018-03-16T14:13:18.085Z,12.60
2018-03-16T14:15:21.454Z,12.80
2018-03-16T14:17:24.768Z,13.00
2018-03-16T14:19:28.134Z,13.20
2018-03-16T14:21:34.150Z,13.10
2018-03-16T14:23:38.553Z,12.90
2018-03-16T14:25:41.922Z,12.90
2018-03-16T14:27:45.302Z,12.70
2018-03-16T14:29:48.624Z,12.60
2018-03-16T14:31:51.940Z,12.50
2018-03-16T14:33:56.180Z,12.30
2018-03-16T14:36:00.341Z,12.20
2018-03-16T14:38:04.451Z,12.10
2018-03-16T14:40:08.593Z,12.10
2018-03-16T14:42:12.165Z,12.10
2018-03-16T14:44:15.506Z,12.10
2018-03-16T14:46:18.845Z,12.00
2018-03-16T14:48:22.954Z,12.00
2018-03-16T14:50:27.124Z,12.00
2018-03-16T14:52:30.457Z,11.90
2018-03-16T14:54:34.576Z,12.00
2018-03-16T14:56:38.814Z,12.00
2018-03-16T14:58:42.135Z,11.90
2018-03-16T15:00:45.527Z,12.00
2018-03-16T15:02:48.881Z,11.90
2018-03-16T15:04:52.237Z,11.90
2018-03-16T15:06:55.568Z,11.90
2018-03-16T15:08:59.655Z,12.00
2018-03-16T15:11:03.006Z,12.00
2018-03-16T15:13:06.366Z,12.00
2018-03-16T15:15:09.711Z,12.20
2018-03-16T15:17:13.809Z,12.80
2018-03-16T15:19:17.177Z,12.80
2018-03-16T15:21:20.613Z,13.00
2018-03-16T15:23:23.972Z,13.30
2018-03-16T15:25:27.313Z,13.60
2018-03-16T15:27:30.631Z,13.70
2018-03-16T15:29:33.960Z,13.70
2018-03-16T15:31:37.272Z,13.70
2018-03-16T15:33:41.396Z,13.90
2018-03-16T15:35:44.740Z,13.90
2018-03-16T15:37:48.083Z,13.90
2018-03-16T15:39:51.434Z,13.90
2018-03-16T15:41:54.788Z,13.90
2018-03-16T15:43:58.137Z,14.00
2018-03-16T15:46:02.227Z,14.00
2018-03-16T15:48:05.642Z,14.00
2018-03-16T15:50:09.003Z,14.10
2018-03-16T15:52:12.355Z,14.20
2018-03-16T15:54:15.678Z,14.30
2018-03-16T15:56:19.012Z,14.40
2018-03-16T15:58:22.345Z,14.40
2018-03-16T16:00:25.697Z,14.40
2018-03-16T16:02:29.042Z,14.40
2018-03-16T16:04:32.378Z,14.50
2018-03-16T16:06:35.778Z,14.30
2018-03-16T16:08:39.102Z,14.30
2018-03-16T16:10:42.427Z,14.30
2018-03-16T16:12:45.766Z,14.20
2018-03-16T16:14:49.143Z,14.10
2018-03-16T16:16:52.506Z,14.00
2018-03-16T16:18:56.750Z,14.00
2018-03-16T16:21:00.967Z,13.90
2018-03-16T16:23:05.742Z,13.90
2018-03-16T16:25:09.205Z,13.80
2018-03-16T16:27:12.548Z,13.80
2018-03-16T16:29:15.927Z,13.70
2018-03-16T16:31:19.386Z,13.70
2018-03-16T16:33:22.881Z,13.60
2018-03-16T16:35:26.257Z,13.60
2018-03-16T16:37:29.758Z,13.50
2018-03-16T16:39:33.244Z,13.50
2018-03-16T16:41:36.599Z,13.40
2018-03-16T16:43:40.608Z,13.40
2018-03-16T16:45:44.320Z,13.30
2018-03-16T16:47:47.897Z,13.20
2018-03-16T16:49:52.283Z,13.10
2018-03-16T16:51:56.512Z,13.10
2018-03-16T16:54:00.767Z,13.20
2018-03-16T16:56:05.305Z,13.20
2018-03-16T16:58:08.681Z,13.10
2018-03-16T17:00:12.211Z,13.10
2018-03-16T17:02:16.017Z,13.10
2018-03-16T17:04:20.003Z,12.90
2018-03-16T17:06:23.525Z,12.80
2018-03-16T17:08:27.406Z,12.70
2018-03-16T17:10:30.798Z,12.70
2018-03-16T17:12:35.069Z,12.60
2018-03-16T17:14:40.967Z,12.40
2018-03-16T17:16:45.863Z,12.40
2018-03-16T17:18:49.237Z,12.40
2018-03-16T17:20:52.780Z,12.30
2018-03-16T17:22:57.209Z,12.30
2018-03-16T17:25:01.582Z,12.20
2018-03-16T17:27:05.254Z,12.10
2018-03-16T17:29:09.564Z,12.10
2018-03-16T17:31:12.933Z,12.00
2018-03-16T17:33:16.328Z,11.90
2018-03-16T17:35:19.734Z,11.80
2018-03-16T17:37:23.861Z,11.60
2018-03-16T17:39:27.250Z,11.60
2018-03-16T17:41:31.448Z,11.50
2018-03-16T17:43:35.760Z,11.40
2018-03-16T17:45:39.907Z,11.30
2018-03-16T17:47:43.325Z,11.30
2018-03-16T17:49:46.908Z,11.20
2018-03-16T17:51:51.257Z,11.10
2018-03-16T17:53:57.158Z,11.10
2018-03-16T17:56:00.978Z,11.00
2018-03-16T17:58:04.384Z,11.00
2018-03-16T18:00:07.723Z,10.90
2018-03-16T18:02:11.110Z,10.90
2018-03-16T18:04:15.453Z,10.70
2018-03-16T18:06:19.683Z,10.70
2018-03-16T18:08:23.076Z,10.70
2018-03-16T18:10:26.406Z,10.60
2018-03-16T18:12:30.554Z,10.50
2018-03-16T18:14:33.940Z,10.50
2018-03-16T18:16:38.046Z,10.40
2018-03-16T18:18:42.260Z,10.40
2018-03-16T18:20:46.350Z,10.40
2018-03-16T18:22:50.479Z,10.30
2018-03-16T18:24:54.629Z,10.20
2018-03-16T18:26:58.002Z,10.20
2018-03-16T18:29:02.299Z,10.20
2018-03-16T18:31:06.397Z,10.00
2018-03-16T18:33:10.043Z,10.00
2018-03-16T18:35:13.481Z,9.90
2018-03-16T18:37:17.594Z,9.70
2018-03-16T18:39:21.829Z,9.60
2018-03-16T18:41:25.258Z,9.60
2018-03-16T18:43:29.404Z,9.50
2018-03-16T18:45:32.888Z,9.40
2018-03-16T18:47:36.257Z,9.30
2018-03-16T18:49:39.615Z,9.30
2018-03-16T18:51:43.020Z,9.20
2018-03-16T18:53:46.417Z,9.10
2018-03-16T18:55:49.793Z,9.00
2018-03-16T18:57:53.182Z,9.00
2018-03-16T18:59:56.527Z,8.90
2018-03-16T19:01:59.883Z,8.80
2018-03-16T19:04:03.240Z,8.60
2018-03-16T19:06:07.590Z,8.60
2018-03-16T19:08:11.541Z,8.60
2018-03-16T19:10:14.919Z,8.60
2018-03-16T19:12:20.835Z,8.40
2018-03-16T19:14:25.051Z,8.40
2018-03-16T19:16:29.315Z,8.40
2018-03-16T19:18:33.618Z,8.30
2018-03-16T19:20:38.292Z,8.30
2018-03-16T19:22:41.637Z,8.30
2018-03-16T19:24:45.923Z,8.30
2018-03-16T19:26:49.526Z,8.20
2018-03-16T19:28:52.946Z,8.10
2018-03-16T19:30:57.090Z,8.00
2018-03-16T19:33:00.478Z,7.90
2018-03-16T19:35:04.751Z,7.90
2018-03-16T19:37:08.107Z,7.90
2018-03-16T19:39:13.853Z,7.80
2018-03-16T19:41:17.964Z,7.80
2018-03-16T19:43:21.401Z,7.70
2018-03-16T19:45:24.712Z,7.70
2018-03-16T19:47:28.171Z,7.60
2018-03-16T19:49:31.551Z,7.60
2018-03-16T19:51:34.884Z,7.50
2018-03-16T19:53:38.301Z,7.50
2018-03-16T19:55:41.628Z,7.40
2018-03-16T19:57:45.017Z,7.40
2018-03-16T19:59:48.378Z,7.40
2018-03-16T20:01:51.751Z,7.40
2018-03-16T20:03:55.883Z,7.40
2018-03-16T20:06:01.885Z,7.40
2018-03-16T20:08:05.585Z,7.40
2018-03-16T20:10:08.928Z,7.40
2018-03-16T20:12:12.294Z,7.40
2018-03-16T20:14:15.734Z,7.30
2018-03-16T20:16:20.702Z,7.30
2018-03-16T20:18:25.170Z,7.20
2018-03-16T20:20:28.561Z,7.20
2018-03-16T20:22:32.668Z,7.20
2018-03-16T20:24:36.934Z,7.20
2018-03-16T20:26:41.370Z,7.20
2018-03-16T20:28:45.527Z,7.20
2018-03-16T20:30:48.872Z,7.20
2018-03-16T20:32:52.965Z,7.20
2018-03-16T20:34:57.179Z,7.10
2018-03-16T20:37:01.259Z,7.10
2018-03-16T20:39:04.729Z,7.10
2018-03-16T20:41:08.072Z,7.10
2018-03-16T20:43:12.359Z,7.00
2018-03-16T20:45:15.792Z,6.90
2018-03-16T20:47:19.194Z,7.00
2018-03-16T20:49:22.633Z,6.90
2018-03-16T20:51:26.019Z,6.90
2018-03-16T20:53:29.533Z,6.90
2018-03-16T20:55:33.619Z,6.90
2018-03-16T20:57:36.992Z,6.90
2018-03-16T20:59:40.389Z,6.90
2018-03-16T21:01:44.618Z,6.90
2018-03-16T21:03:48.144Z,6.90
2018-03-16T21:05:51.492Z,6.80
2018-03-16T21:07:54.864Z,6.80
2018-03-16T21:09:58.234Z,6.80
2018-03-16T21:12:02.479Z,6.70
2018-03-16T21:14:05.978Z,6.70
2018-03-16T21:16:09.373Z,6.70
2018-03-16T21:18:12.970Z,6.70
2018-03-16T21:20:18.054Z,6.60
2018-03-16T21:22:21.493Z,6.60
2018-03-16T21:24:24.899Z,6.50
2018-03-16T21:26:28.541Z,6.40
2018-03-16T21:28:32.863Z,6.40
2018-03-16T21:30:36.963Z,6.40
2018-03-16T21:32:41.272Z,6.40
2018-03-16T21:34:44.647Z,6.40
2018-03-16T21:36:48.179Z,6.40
2018-03-16T21:38:51.741Z,6.50
2018-03-16T21:40:55.352Z,6.50
2018-03-16T21:42:58.728Z,6.50
2018-03-16T21:45:03.810Z,6.50
2018-03-16T21:47:09.248Z,6.50
2018-03-16T21:49:12.608Z,6.50
2018-03-16T21:51:26.695Z,6.50
2018-03-16T21:56:47.571Z,6.40
2018-03-16T21:58:51.753Z,6.30
2018-03-16T22:00:55.892Z,6.40
2018-03-16T22:03:00.075Z,6.40
2018-03-16T22:05:03.505Z,6.40
2018-03-16T22:07:07.822Z,6.40
2018-03-16T22:09:11.242Z,6.40
2018-03-16T22:11:14.613Z,6.40
2018-03-16T22:13:17.973Z,6.40
2018-03-16T22:15:21.344Z,6.40
2018-03-16T22:17:24.784Z,6.40
2018-03-16T22:19:28.196Z,6.50
2018-03-16T22:21:32.163Z,6.50
2018-03-16T22:23:36.527Z,6.60
2018-03-16T22:25:39.908Z,6.60
2018-03-16T22:27:43.237Z,6.60
2018-03-16T22:29:46.601Z,6.70
2018-03-16T22:31:50.012Z,6.70
2018-03-16T22:33:54.106Z,6.70
2018-03-16T22:38:33.170Z,6.70
2018-03-16T22:40:36.513Z,6.70
2018-03-16T22:42:41.263Z,6.70
2018-03-16T22:44:44.763Z,6.70
2018-03-16T22:46:48.153Z,6.70
2018-03-16T22:48:51.549Z,6.60
2018-03-16T22:50:54.921Z,6.60
2018-03-16T22:52:58.281Z,6.50
2018-03-16T22:55:03.495Z,6.50
2018-03-16T22:57:07.779Z,6.40
2018-03-16T22:59:11.310Z,6.40
2018-03-16T23:01:14.746Z,6.40
2018-03-16T23:03:20.026Z,6.40
2018-03-16T23:05:24.809Z,6.40
2018-03-16T23:07:28.210Z,6.30
2018-03-16T23:09:31.566Z,6.40
2018-03-16T23:11:34.933Z,6.40
2018-03-16T23:13:38.293Z,6.40
2018-03-16T23:15:42.948Z,6.40
2018-03-16T23:17:46.340Z,6.40
2018-03-16T23:19:49.723Z,6.30
2018-03-16T23:21:53.902Z,6.30
2018-03-16T23:23:58.015Z,6.30
2018-03-16T23:26:01.363Z,6.20
2018-03-16T23:28:05.453Z,6.30
2018-03-16T23:30:09.578Z,6.20
2018-03-16T23:32:13.677Z,6.20
2018-03-16T23:34:16.996Z,6.20
2018-03-16T23:36:20.441Z,6.20
2018-03-16T23:38:23.785Z,6.20
2018-03-16T23:40:28.812Z,6.00
2018-03-16T23:42:32.922Z,5.90
2018-03-16T23:44:37.042Z,5.90
2018-03-16T23:46:41.004Z,5.80
2018-03-16T23:48:46.907Z,5.90
2018-03-16T23:50:50.337Z,5.90
2018-03-16T23:52:54.198Z,6.00
2018-03-16T23:54:57.563Z,5.90
2018-03-16T23:57:00.938Z,5.90
2018-03-16T23:59:04.270Z,5.90
